Time;durP1;ratioP1;P1;durP2;ratioP2;P2;SDS_P1;SDS_P2;PMS_P1;PMS_P2;Temp;Humidity;BMP_temperature;BMP_pressure;BME280_temperature;BME280_humidity;BME280_pressure;Samples;Min_cycle;Max_cycle;Signal;HPM_P1;HPM_P2
2024/01/19 00:01:31;;;;;;;47.40;24.63;;;-1.20;20.30;;;;;;7379397;19;20018;-70
2024/01/19 00:04:02;;;;;;;45.47;23.27;;;-1.10;21.40;;;;;;7376943;19;20017;-70
2024/01/19 00:06:34;;;;;;;46.88;23.65;;;-1.10;22.60;;;;;;7378862;19;20418;-71
2024/01/19 00:09:05;;;;;;;47.05;23.65;;;-1.10;23.50;;;;;;7379082;19;20003;-70
2024/01/19 00:11:36;;;;;;;50.42;26.15;;;-1.20;19.90;;;;;;7378899;19;20033;-70
2024/01/19 00:14:06;;;;;;;53.30;23.45;;;-1.10;24.00;;;;;;7379007;19;20009;-71
2024/01/19 00:16:36;;;;;;;51.78;26.85;;;-1.10;22.60;;;;;;7377379;19;20010;-69
2024/01/19 00:19:06;;;;;;;49.13;25.70;;;-1.10;21.80;;;;;;7378022;19;20010;-70
2024/01/19 00:21:44;;;;;;;47.72;25.05;;;-1.10;22.20;;;;;;7378451;19;20014;-70
2024/01/19 00:24:15;;;;;;;47.17;23.88;;;-1.10;18.70;;;;;;7379467;19;20014;-69
2024/01/19 00:26:47;;;;;;;47.40;25.27;;;-1.10;19.90;;;;;;7375310;19;20416;-70
2024/01/19 00:29:17;;;;;;;47.40;25.90;;;-1.10;17.80;;;;;;7376765;19;20006;-70
2024/01/19 00:31:48;;;;;;;48.20;24.42;;;-1.00;22.10;;;;;;7376634;19;20343;-70
2024/01/19 00:34:19;;;;;;;48.72;22.88;;;-1.00;16.30;;;;;;7377138;19;20039;-70
2024/01/19 00:36:51;;;;;;;50.72;24.25;;;-1.10;19.90;;;;;;7377934;19;20032;-69
2024/01/19 00:39:21;;;;;;;43.80;25.25;;;-1.10;20.00;;;;;;7377665;19;20011;-70
2024/01/19 00:41:51;;;;;;;47.60;24.63;;;-1.20;18.30;;;;;;7377016;19;20007;-70
2024/01/19 00:44:22;;;;;;;50.20;25.20;;;-1.10;21.20;;;;;;7378347;19;20023;-69
2024/01/19 00:46:52;;;;;;;47.60;24.65;;;-1.10;21.50;;;;;;7377619;19;20011;-70
2024/01/19 00:49:21;;;;;;;45.22;24.33;;;-1.10;24.20;;;;;;7378688;19;20344;-70
2024/01/19 00:51:55;;;;;;;42.60;24.10;;;-1.10;26.70;;;;;;7376316;19;20733;-69
2024/01/19 00:54:25;;;;;;;46.03;24.60;;;-1.10;29.40;;;;;;7378687;19;20010;-70
2024/01/19 00:56:55;;;;;;;45.30;24.85;;;-1.10;26.20;;;;;;7385309;19;20014;-70
2024/01/19 00:59:25;;;;;;;43.20;25.55;;;-1.00;27.20;;;;;;7377924;19;20010;-70
2024/01/19 01:01:55;;;;;;;51.63;26.23;;;-1.10;25.30;;;;;;7377260;19;20012;-70
2024/01/19 01:04:25;;;;;;;49.92;24.98;;;-1.00;25.90;;;;;;7376797;19;20429;-69
2024/01/19 01:06:57;;;;;;;44.63;23.83;;;-1.10;18.50;;;;;;7378232;19;20010;-69
2024/01/19 01:09:27;;;;;;;48.28;21.58;;;-1.10;19.20;;;;;;7377319;19;20523;-69
2024/01/19 01:11:57;;;;;;;48.20;24.20;;;-1.10;17.70;;;;;;7377447;19;20002;-69
2024/01/19 01:14:28;;;;;;;39.45;22.45;;;-1.20;18.90;;;;;;7377313;19;20471;-69
2024/01/19 01:16:58;;;;;;;45.67;25.33;;;-1.10;19.10;;;;;;7375608;19;20010;-71
2024/01/19 01:19:28;;;;;;;42.88;22.55;;;-1.10;18.50;;;;;;7378328;19;20018;-70
2024/01/19 01:22:00;;;;;;;46.90;22.40;;;-1.10;19.10;;;;;;7377010;19;20417;-70
2024/01/19 01:24:30;;;;;;;49.47;24.33;;;-1.10;14.10;;;;;;7376924;19;20035;-70
2024/01/19 01:27:00;;;;;;;48.03;22.70;;;-1.10;16.90;;;;;;7375798;19;20035;-70
2024/01/19 01:29:30;;;;;;;42.67;23.85;;;-1.10;21.10;;;;;;7377002;19;20015;-70
2024/01/19 01:32:00;;;;;;;44.95;22.90;;;-0.90;24.00;;;;;;7375701;19;20007;-70
2024/01/19 01:34:30;;;;;;;47.33;24.73;;;-1.00;18.70;;;;;;7374844;19;20015;-70
2024/01/19 01:37:03;;;;;;;48.97;22.77;;;-1.00;21.30;;;;;;7374516;19;20108;-70
2024/01/19 01:39:33;;;;;;;41.20;23.30;;;-0.90;20.90;;;;;;7376528;19;20372;-70
2024/01/19 01:42:04;;;;;;;50.25;24.77;;;-0.90;20.10;;;;;;7377349;19;20345;-71
2024/01/19 01:44:34;;;;;;;44.85;23.50;;;-0.90;18.30;;;;;;7376511;19;20011;-70
2024/01/19 01:47:04;;;;;;;46.78;24.58;;;-1.00;15.00;;;;;;7376301;19;20328;-70
2024/01/19 01:49:34;;;;;;;44.10;21.77;;;-1.00;14.60;;;;;;7375981;19;20010;-70
2024/01/19 01:52:07;;;;;;;39.08;22.17;;;-1.00;14.20;;;;;;7375985;19;20011;-70
2024/01/19 01:54:37;;;;;;;43.20;22.33;;;-0.90;16.40;;;;;;7375359;19;20087;-70
2024/01/19 01:57:09;;;;;;;40.22;20.83;;;-1.00;13.90;;;;;;7375982;19;20335;-70
2024/01/19 01:59:39;;;;;;;42.60;20.25;;;-1.00;10.40;;;;;;7374817;19;20137;-70
2024/01/19 02:02:10;;;;;;;46.65;23.33;;;-1.00;10.80;;;;;;7376292;19;20603;-70
2024/01/19 02:04:41;;;;;;;45.42;22.48;;;-1.00;11.80;;;;;;7373822;19;20094;-70
2024/01/19 02:07:13;;;;;;;43.83;23.63;;;-1.00;8.80;;;;;;7383458;19;20056;-70
2024/01/19 02:09:44;;;;;;;49.90;24.25;;;-1.00;10.60;;;;;;7381861;19;20094;-69
2024/01/19 02:12:15;;;;;;;46.83;24.40;;;-0.90;11.30;;;;;;7383161;19;20036;-70
2024/01/19 02:14:45;;;;;;;43.78;24.25;;;-0.90;14.00;;;;;;7382031;19;20025;-70
2024/01/19 02:17:15;;;;;;;47.17;25.33;;;-0.80;14.60;;;;;;7381733;19;20058;-70
2024/01/19 02:19:45;;;;;;;46.63;24.48;;;-0.90;8.20;;;;;;7383211;19;20006;-70
2024/01/19 02:22:19;;;;;;;46.75;24.95;;;-1.00;7.40;;;;;;7382903;19;20014;-70
2024/01/19 02:24:51;;;;;;;42.83;23.58;;;-0.90;12.60;;;;;;7383348;19;20011;-72
2024/01/19 02:27:22;;;;;;;44.33;24.02;;;-1.00;10.70;;;;;;7378682;19;20011;-71
2024/01/19 02:29:52;;;;;;;39.20;22.45;;;-1.00;9.60;;;;;;7382641;19;20011;-71
2024/01/19 02:32:22;;;;;;;49.35;23.90;;;-1.10;10.40;;;;;;7381801;19;20010;-71
2024/01/19 02:34:52;;;;;;;43.30;23.92;;;-1.10;10.40;;;;;;7381706;19;20007;-71
2024/01/19 02:37:23;;;;;;;45.70;22.08;;;-1.10;11.10;;;;;;7382574;19;20014;-71
2024/01/19 02:39:56;;;;;;;39.92;21.35;;;-1.10;10.00;;;;;;7380922;19;20054;-71
2024/01/19 02:42:26;;;;;;;40.78;21.25;;;-1.10;10.90;;;;;;7380952;19;20021;-70
2024/01/19 02:44:57;;;;;;;36.03;20.27;;;-1.20;12.50;;;;;;7381059;19;20021;-70
2024/01/19 02:47:27;;;;;;;40.13;23.83;;;-1.20;15.20;;;;;;7381591;19;20011;-71
2024/01/19 02:49:58;;;;;;;45.53;27.30;;;-1.20;15.80;;;;;;7380086;19;20015;-71
2024/01/19 02:52:27;;;;;;;51.92;25.77;;;-1.20;17.00;;;;;;7380235;19;20011;-71
2024/01/19 02:55:00;;;;;;;51.38;26.25;;;-1.30;18.60;;;;;;7379586;19;20018;-71
2024/01/19 02:57:30;;;;;;;48.13;23.70;;;-1.30;18.70;;;;;;7380534;19;20022;-71
2024/01/19 03:00:01;;;;;;;47.78;24.13;;;-1.30;20.50;;;;;;7379487;19;20010;-71
2024/01/19 03:02:31;;;;;;;43.17;23.55;;;-1.30;22.60;;;;;;7380191;19;20498;-71
2024/01/19 03:05:01;;;;;;;45.55;22.85;;;-1.40;24.80;;;;;;7378951;19;20509;-70
2024/01/19 03:07:31;;;;;;;46.03;23.63;;;-1.50;26.10;;;;;;7380858;19;20015;-71
2024/01/19 03:10:04;;;;;;;44.10;23.33;;;-1.50;28.50;;;;;;7379988;19;20399;-71
2024/01/19 03:12:34;;;;;;;41.00;21.73;;;-1.60;33.00;;;;;;7379610;19;20065;-70
2024/01/19 03:15:04;;;;;;;39.17;20.60;;;-1.60;33.40;;;;;;7380043;19;20014;-70
2024/01/19 03:17:34;;;;;;;40.33;23.45;;;-1.60;39.10;;;;;;7386917;19;20015;-70
2024/01/19 03:20:05;;;;;;;40.67;22.02;;;-1.70;43.50;;;;;;7381136;19;20347;-70
2024/01/19 03:22:35;;;;;;;48.03;24.52;;;-1.70;49.70;;;;;;7381179;19;20013;-71
2024/01/19 03:25:09;;;;;;;46.63;25.20;;;-1.70;60.70;;;;;;7381994;19;20031;-70
2024/01/19 03:27:39;;;;;;;49.92;24.88;;;-1.70;62.30;;;;;;7380593;19;20011;-70
2024/01/19 03:30:10;;;;;;;47.60;24.88;;;-1.70;70.00;;;;;;7379510;19;20049;-69
2024/01/19 03:32:40;;;;;;;43.22;22.30;;;-1.70;75.10;;;;;;7379723;19;20021;-69
2024/01/19 03:35:10;;;;;;;48.65;23.42;;;-1.80;76.50;;;;;;7378065;19;20013;-69
2024/01/19 03:37:41;;;;;;;48.22;25.05;;;-1.80;80.20;;;;;;7379161;19;20031;-70
2024/01/19 03:40:14;;;;;;;51.63;24.35;;;-1.80;83.70;;;;;;7378867;19;20784;-70
2024/01/19 03:42:44;;;;;;;47.22;25.38;;;-1.80;87.60;;;;;;7379112;19;20018;-70
2024/01/19 03:45:14;;;;;;;43.08;24.00;;;-1.90;88.00;;;;;;7379520;19;20011;-70
2024/01/19 03:47:44;;;;;;;47.72;24.48;;;-1.80;91.50;;;;;;7378592;19;20010;-70
2024/01/19 03:50:14;;;;;;;43.92;22.83;;;-1.80;93.80;;;;;;7377190;19;20502;-70
2024/01/19 03:52:47;;;;;;;52.80;25.20;;;-1.80;94.20;;;;;;7378254;19;20014;-71
2024/01/19 03:55:20;;;;;;;43.60;22.45;;;-1.80;96.20;;;;;;7377830;19;20466;-70
2024/01/19 03:57:50;;;;;;;47.90;22.92;;;-1.90;96.50;;;;;;7378208;19;20013;-70
2024/01/19 04:00:20;;;;;;;48.78;24.42;;;-1.90;98.30;;;;;;7376928;19;20364;-71
2024/01/19 04:02:50;;;;;;;45.03;22.45;;;-1.80;99.60;;;;;;7379137;19;20017;-70
2024/01/19 04:05:21;;;;;;;44.83;23.00;;;-1.90;99.40;;;;;;7379674;19;20010;-70
2024/01/19 04:07:51;;;;;;;46.97;22.98;;;-1.90;99.90;;;;;;7380241;19;20170;-70
2024/01/19 04:10:25;;;;;;;37.97;21.50;;;-1.90;99.90;;;;;;7377556;19;20094;-71
2024/01/19 04:12:55;;;;;;;44.45;22.73;;;-1.80;99.90;;;;;;7377720;19;20021;-70
2024/01/19 04:15:25;;;;;;;46.38;21.73;;;-1.80;99.90;;;;;;7379145;19;20010;-70
2024/01/19 04:17:55;;;;;;;38.78;20.95;;;-1.90;99.90;;;;;;7377855;19;20017;-70
2024/01/19 04:20:25;;;;;;;39.90;21.85;;;-1.80;99.90;;;;;;7376746;19;20002;-71
2024/01/19 04:22:55;;;;;;;47.42;20.45;;;-1.90;99.90;;;;;;7377592;19;20013;-70
2024/01/19 04:25:28;;;;;;;46.10;22.90;;;-1.80;99.90;;;;;;7377940;19;20010;-70
2024/01/19 04:27:58;;;;;;;41.22;21.38;;;-1.80;99.90;;;;;;7378415;19;20020;-68
2024/01/19 04:30:28;;;;;;;43.17;23.48;;;-1.70;99.90;;;;;;7375420;19;20811;-70
2024/01/19 04:32:58;;;;;;;42.08;19.73;;;-1.80;99.90;;;;;;7377191;19;20574;-70
2024/01/19 04:35:28;;;;;;;47.03;25.48;;;-1.70;99.90;;;;;;7376582;19;20011;-70
2024/01/19 04:37:58;;;;;;;45.00;23.42;;;-1.80;98.80;;;;;;7377038;19;20042;-70
2024/01/19 04:40:31;;;;;;;46.20;23.77;;;-1.80;99.80;;;;;;7376473;19;20470;-70
2024/01/19 04:43:01;;;;;;;45.33;23.08;;;-1.80;98.60;;;;;;7377663;19;20077;-70
2024/01/19 04:45:31;;;;;;;47.67;23.70;;;-1.70;98.80;;;;;;7377791;19;20015;-71
2024/01/19 04:48:01;;;;;;;45.80;24.13;;;-1.60;99.90;;;;;;7377907;19;20006;-71
2024/01/19 04:50:32;;;;;;;43.45;24.15;;;-1.60;99.70;;;;;;7378410;19;20021;-70
2024/01/19 04:53:02;;;;;;;46.20;22.83;;;-1.60;98.20;;;;;;7373836;19;20018;-70
2024/01/19 04:55:34;;;;;;;44.17;22.52;;;-1.70;95.70;;;;;;7377672;19;20110;-71
2024/01/19 04:58:05;;;;;;;40.28;22.08;;;-1.60;95.70;;;;;;7377209;19;20092;-70
2024/01/19 05:00:35;;;;;;;40.40;21.55;;;-1.60;95.70;;;;;;7376016;19;20371;-70
2024/01/19 05:03:05;;;;;;;43.25;22.90;;;-1.60;92.30;;;;;;7378209;19;20013;-70
2024/01/19 05:05:35;;;;;;;40.20;22.45;;;-1.60;88.70;;;;;;7378427;19;20011;-70
2024/01/19 05:08:06;;;;;;;42.88;21.70;;;-1.50;90.90;;;;;;7378121;19;20002;-70
2024/01/19 05:10:38;;;;;;;41.13;22.58;;;-1.50;82.80;;;;;;7379176;19;20037;-70
2024/01/19 05:13:08;;;;;;;38.75;21.50;;;-1.50;76.90;;;;;;7375035;19;20022;-70
2024/01/19 05:15:39;;;;;;;38.75;22.05;;;-1.50;70.70;;;;;;7377022;19;20010;-70
2024/01/19 05:18:09;;;;;;;40.08;21.52;;;-1.60;65.50;;;;;;7378129;19;20019;-70
2024/01/19 05:20:39;;;;;;;43.00;21.92;;;-1.60;66.10;;;;;;7375012;19;20023;-70
2024/01/19 05:23:09;;;;;;;40.42;21.92;;;-1.60;66.00;;;;;;7377816;19;20136;-70
2024/01/19 05:25:42;;;;;;;42.28;21.17;;;-1.50;68.20;;;;;;7377101;19;20002;-70
2024/01/19 05:28:12;;;;;;;40.30;19.67;;;-1.50;66.80;;;;;;7376893;19;20086;-70
2024/01/19 05:30:42;;;;;;;41.45;21.15;;;-1.60;66.10;;;;;;7376478;19;20360;-71
2024/01/19 05:33:12;;;;;;;33.85;20.67;;;-1.60;67.30;;;;;;7375951;19;20022;-70
2024/01/19 05:35:42;;;;;;;42.65;22.27;;;-1.60;69.00;;;;;;7374106;19;20394;-70
2024/01/19 05:38:12;;;;;;;42.13;22.65;;;-1.60;68.70;;;;;;7382715;19;20090;-70
2024/01/19 05:40:45;;;;;;;37.35;21.80;;;-1.60;71.40;;;;;;7381696;19;20502;-70
2024/01/19 05:43:15;;;;;;;40.90;22.23;;;-1.60;73.70;;;;;;7381210;19;20021;-70
2024/01/19 05:45:45;;;;;;;39.97;19.90;;;-1.60;74.50;;;;;;7381826;19;20112;-70
2024/01/19 05:48:15;;;;;;;40.92;22.25;;;-1.60;74.30;;;;;;7382306;19;20040;-70
2024/01/19 05:50:45;;;;;;;41.50;21.20;;;-1.60;74.10;;;;;;7381752;19;20466;-71
2024/01/19 05:53:15;;;;;;;38.80;20.25;;;-1.60;67.50;;;;;;7382488;19;20010;-69
2024/01/19 05:55:48;;;;;;;37.00;19.02;;;-1.70;65.40;;;;;;7382297;19;20503;-70
2024/01/19 05:58:18;;;;;;;41.10;19.88;;;-1.70;64.60;;;;;;7382630;19;20018;-70
2024/01/19 06:00:49;;;;;;;37.67;20.15;;;-1.70;64.70;;;;;;7381246;19;20012;-70
2024/01/19 06:03:19;;;;;;;40.80;20.58;;;-1.70;67.30;;;;;;7382643;19;20079;-70
2024/01/19 06:05:49;;;;;;;35.00;19.23;;;-1.70;66.20;;;;;;7381025;19;20037;-70
2024/01/19 06:08:19;;;;;;;36.05;20.05;;;-1.70;71.10;;;;;;7381304;19;20427;-70
2024/01/19 06:10:52;;;;;;;37.15;18.95;;;-1.70;69.20;;;;;;7381041;19;20546;-70
2024/01/19 06:13:22;;;;;;;44.45;19.88;;;-1.70;65.50;;;;;;7381884;19;20093;-70
2024/01/19 06:15:52;;;;;;;39.55;19.73;;;-1.70;65.70;;;;;;7381263;19;20011;-70
2024/01/19 06:18:22;;;;;;;36.70;17.73;;;-1.60;68.60;;;;;;7380552;19;20007;-70
2024/01/19 06:20:54;;;;;;;33.78;19.20;;;-1.60;65.00;;;;;;7382095;19;20007;-70
2024/01/19 06:23:25;;;;;;;36.50;19.55;;;-1.60;66.40;;;;;;7381672;19;20021;-69
2024/01/19 06:25:57;;;;;;;34.72;17.48;;;-1.60;61.80;;;;;;7381409;19;20097;-70
2024/01/19 06:28:27;;;;;;;39.13;18.25;;;-1.70;54.60;;;;;;7382313;19;20002;-70
2024/01/19 06:30:57;;;;;;;39.78;19.58;;;-1.60;61.40;;;;;;7382302;19;20384;-70
2024/01/19 06:33:27;;;;;;;34.75;17.77;;;-1.60;60.40;;;;;;7381715;19;20025;-70
2024/01/19 06:35:57;;;;;;;35.47;18.35;;;-1.60;58.30;;;;;;7381996;19;20017;-70
2024/01/19 06:38:27;;;;;;;35.92;18.13;;;-1.70;60.30;;;;;;7379728;19;20006;-70
2024/01/19 06:41:00;;;;;;;37.22;18.75;;;-1.60;63.80;;;;;;7381182;19;20763;-70
2024/01/19 06:43:30;;;;;;;35.10;17.65;;;-1.70;61.10;;;;;;7381728;19;20030;-69
2024/01/19 06:46:00;;;;;;;33.72;18.05;;;-1.70;68.70;;;;;;7380990;19;20043;-68
2024/01/19 06:48:31;;;;;;;35.08;18.00;;;-1.70;61.30;;;;;;7380498;19;20010;-70
2024/01/19 06:51:01;;;;;;;36.25;18.80;;;-1.70;60.70;;;;;;7379717;19;20015;-68
2024/01/19 06:53:31;;;;;;;37.47;18.77;;;-1.80;61.10;;;;;;7380357;19;20684;-70
2024/01/19 06:56:04;;;;;;;34.35;18.55;;;-1.80;66.20;;;;;;7380474;19;20040;-70
2024/01/19 06:58:39;;;;;;;37.22;19.27;;;-1.80;72.10;;;;;;7380050;19;20014;-70
2024/01/19 07:01:09;;;;;;;34.17;18.77;;;-1.90;71.00;;;;;;7380552;19;20371;-70
2024/01/19 07:03:39;;;;;;;36.17;18.65;;;-1.90;71.90;;;;;;7378681;19;20070;-69
2024/01/19 07:06:09;;;;;;;37.63;18.35;;;-1.90;72.70;;;;;;7379741;19;20011;-70
2024/01/19 07:08:39;;;;;;;36.53;18.15;;;-1.90;79.20;;;;;;7381186;19;20043;-69
2024/01/19 07:11:14;;;;;;;35.92;18.00;;;-1.90;79.30;;;;;;7379946;19;20018;-72
2024/01/19 07:13:44;;;;;;;38.38;18.38;;;-1.90;81.30;;;;;;7381273;19;20022;-69
2024/01/19 07:16:14;;;;;;;36.97;19.80;;;-2.00;82.90;;;;;;7378386;19;20010;-70
2024/01/19 07:18:45;;;;;;;33.17;18.05;;;-2.00;85.40;;;;;;7377947;19;20014;-70
2024/01/19 07:21:16;;;;;;;39.78;18.08;;;-2.00;87.80;;;;;;7377324;19;20010;-69
2024/01/19 07:23:46;;;;;;;35.30;18.73;;;-2.00;88.70;;;;;;7377163;19;20432;-70
2024/01/19 07:26:23;;;;;;;37.38;19.15;;;-2.00;85.70;;;;;;7375630;19;20006;-70
2024/01/19 07:28:53;;;;;;;36.17;18.83;;;-2.00;82.90;;;;;;7377078;19;20330;-69
2024/01/19 07:31:23;;;;;;;37.38;18.92;;;-2.00;89.40;;;;;;7377528;19;20010;-70
2024/01/19 07:33:53;;;;;;;36.80;18.77;;;-2.00;90.30;;;;;;7379181;19;20010;-69
2024/01/19 07:36:23;;;;;;;37.65;18.75;;;-2.00;93.60;;;;;;7378491;19;20030;-69
2024/01/19 07:38:54;;;;;;;34.58;18.92;;;-1.90;94.10;;;;;;7378606;19;20027;-70
2024/01/19 07:41:27;;;;;;;38.53;18.58;;;-2.00;93.70;;;;;;7377093;19;20089;-69
2024/01/19 07:43:57;;;;;;;43.33;21.58;;;-1.90;94.40;;;;;;7376857;19;20011;-69
2024/01/19 07:46:27;;;;;;;36.85;20.40;;;-1.90;94.40;;;;;;7377870;19;20011;-70
2024/01/19 07:48:57;;;;;;;33.03;17.77;;;-1.90;93.40;;;;;;7377796;19;20010;-69
2024/01/19 07:51:27;;;;;;;41.50;20.20;;;-1.80;93.10;;;;;;7377154;19;20082;-69
2024/01/19 07:53:57;;;;;;;35.45;18.48;;;-1.90;89.30;;;;;;7378469;19;20006;-69
2024/01/19 07:56:30;;;;;;;37.90;20.73;;;-1.90;86.50;;;;;;7377683;19;20006;-68
2024/01/19 07:59:00;;;;;;;42.53;20.83;;;-1.90;89.50;;;;;;7382790;19;20011;-68
2024/01/19 08:01:33;;;;;;;33.72;18.42;;;-1.80;88.40;;;;;;7378343;19;20022;-72
2024/01/19 08:04:04;;;;;;;34.78;19.63;;;-1.90;87.00;;;;;;7376461;19;20007;-71
2024/01/19 08:06:34;;;;;;;34.92;20.77;;;-2.00;82.00;;;;;;7376536;19;20482;-71
2024/01/19 08:09:05;;;;;;;37.40;19.80;;;-2.00;79.40;;;;;;7377935;19;20007;-72
2024/01/19 08:11:37;;;;;;;38.42;19.30;;;-2.00;84.30;;;;;;7377925;19;20014;-72
2024/01/19 08:14:07;;;;;;;40.15;20.17;;;-1.90;84.60;;;;;;7376964;19;20024;-72
2024/01/19 08:16:37;;;;;;;41.70;21.70;;;-1.90;87.90;;;;;;7377521;19;20014;-71
2024/01/19 08:19:07;;;;;;;39.72;20.60;;;-2.00;87.60;;;;;;7377626;19;20348;-71
2024/01/19 08:21:43;;;;;;;39.13;21.40;;;-2.00;83.20;;;;;;7376795;19;20087;-70
2024/01/19 08:24:13;;;;;;;35.97;18.90;;;-2.00;90.50;;;;;;7377908;19;20017;-71
2024/01/19 08:26:46;;;;;;;46.17;20.60;;;-2.00;86.30;;;;;;7377823;19;20491;-70
2024/01/19 08:29:16;;;;;;;37.13;18.88;;;-1.90;87.10;;;;;;7377238;19;20015;-70
2024/01/19 08:31:47;;;;;;;41.10;22.30;;;-1.90;85.90;;;;;;7377459;19;20018;-71
2024/01/19 08:34:17;;;;;;;34.40;19.85;;;-1.80;73.60;;;;;;7376770;19;20014;-67
2024/01/19 08:36:47;;;;;;;42.83;22.02;;;-1.80;76.70;;;;;;7377468;19;20475;-69
2024/01/19 08:39:18;;;;;;;43.65;21.45;;;-1.70;70.40;;;;;;7377287;19;20006;-68
2024/01/19 08:41:50;;;;;;;41.42;20.98;;;-1.70;57.10;;;;;;7376742;19;20479;-69
2024/01/19 08:44:21;;;;;;;56.03;22.30;;;-1.60;57.00;;;;;;7377414;19;20035;-69
2024/01/19 08:46:51;;;;;;;41.20;20.33;;;-1.50;54.10;;;;;;7377614;19;20011;-70
2024/01/19 08:49:21;;;;;;;37.17;21.77;;;-1.50;40.40;;;;;;7376130;19;20758;-69
2024/01/19 08:51:53;;;;;;;37.58;20.73;;;-1.50;36.80;;;;;;7375628;19;20109;-70
2024/01/19 08:54:23;;;;;;;46.22;22.02;;;-1.40;30.90;;;;;;7377103;19;20007;-70
2024/01/19 08:56:57;;;;;;;42.97;20.90;;;-1.30;31.30;;;;;;7376928;19;20086;-70
2024/01/19 08:59:28;;;;;;;38.50;21.85;;;-1.30;19.60;;;;;;7376188;19;20397;-70
2024/01/19 09:01:58;;;;;;;42.83;22.05;;;-1.30;15.40;;;;;;7375123;19;20441;-69
2024/01/19 09:04:28;;;;;;;38.10;21.95;;;-1.10;14.90;;;;;;7375859;19;20006;-68
2024/01/19 09:06:58;;;;;;;40.25;22.70;;;-1.00;6.90;;;;;;7376479;19;20025;-69
2024/01/19 09:09:29;;;;;;;44.47;20.65;;;-0.90;1.00;;;;;;7376615;19;20034;-69
2024/01/19 09:12:02;;;;;;;39.17;20.50;;;-0.80;1.00;;;;;;7376851;19;20034;-70
2024/01/19 09:14:32;;;;;;;38.22;20.92;;;-0.80;1.00;;;;;;7373727;19;20484;-70
2024/01/19 09:17:02;;;;;;;38.65;21.50;;;-0.60;1.00;;;;;;7376232;19;20019;-69
2024/01/19 09:19:32;;;;;;;37.47;19.55;;;-0.70;1.00;;;;;;7375955;19;20010;-68
2024/01/19 09:22:05;;;;;;;37.63;20.83;;;-0.90;1.00;;;;;;7376462;19;20070;-69
2024/01/19 09:24:35;;;;;;;37.92;20.63;;;-0.50;1.00;;;;;;7375686;19;20010;-69
2024/01/19 09:27:08;;;;;;;35.45;20.15;;;-0.60;1.00;;;;;;7375493;19;20014;-69
2024/01/19 09:29:38;;;;;;;32.13;17.98;;;-0.60;1.00;;;;;;7375887;19;20014;-70
2024/01/19 09:32:08;;;;;;;37.83;18.88;;;-0.50;1.00;;;;;;7375707;19;20007;-69
2024/01/19 09:34:38;;;;;;;40.70;18.25;;;-0.90;1.00;;;;;;7375005;19;20017;-70
2024/01/19 09:37:08;;;;;;;36.28;19.63;;;-0.90;1.00;;;;;;7375837;19;20030;-69
2024/01/19 09:39:38;;;;;;;33.58;18.63;;;-0.70;1.00;;;;;;7375044;19;20022;-70
2024/01/19 09:42:25;;;;;;;34.35;18.23;;;-0.80;1.00;;;;;;7374670;19;20042;-70
2024/01/19 09:45:03;;;;;;;35.58;18.65;;;-0.80;1.00;;;;;;7369773;19;20015;-72
2024/01/19 09:48:00;;;;;;;40.53;22.52;;;-0.70;1.00;;;;;;7374706;19;20015;-71
2024/01/19 09:50:36;;;;;;;38.63;21.42;;;-0.70;1.00;;;;;;7373212;19;20014;-71
2024/01/19 09:53:15;;;;;;;38.55;20.13;;;-0.90;1.00;;;;;;7374877;19;20014;-70
2024/01/19 09:55:48;;;;;;;41.85;21.48;;;-1.10;1.00;;;;;;7374222;19;20016;-71
2024/01/19 09:58:23;;;;;;;41.13;22.10;;;-1.00;1.00;;;;;;7376730;19;19999;-69
2024/01/19 10:00:54;;;;;;;39.75;20.67;;;-0.90;1.00;;;;;;7373978;19;20018;-69
2024/01/19 10:03:25;;;;;;;49.50;22.83;;;-0.90;1.00;;;;;;7375199;19;20139;-69
2024/01/19 10:05:56;;;;;;;37.55;21.30;;;-1.00;1.00;;;;;;7375387;19;20010;-70
2024/01/19 10:08:27;;;;;;;40.90;22.30;;;-1.30;1.00;;;;;;7373418;19;20010;-69
2024/01/19 10:10:59;;;;;;;40.70;23.88;;;-1.10;1.00;;;;;;7373351;19;20117;-69
2024/01/19 10:13:31;;;;;;;41.63;22.60;;;-0.90;1.00;;;;;;7372444;19;20011;-69
2024/01/19 10:16:01;;;;;;;43.70;25.08;;;-0.60;1.00;;;;;;7376607;19;20459;-69
2024/01/19 10:18:32;;;;;;;43.67;23.67;;;-0.40;1.00;;;;;;7379702;19;20010;-69
2024/01/19 10:21:05;;;;;;;38.50;22.83;;;-0.10;1.00;;;;;;7376474;19;20019;-69
2024/01/19 10:23:35;;;;;;;38.85;21.00;;;-0.60;1.00;;;;;;7370358;19;20022;-69
2024/01/19 10:26:15;;;;;;;38.83;22.52;;;-0.70;1.00;;;;;;7373725;19;20086;-70
2024/01/19 10:28:47;;;;;;;37.47;20.95;;;-0.70;1.00;;;;;;7376752;19;20034;-69
2024/01/19 10:31:21;;;;;;;39.30;21.10;;;-0.60;1.00;;;;;;7381910;19;20018;-69
2024/01/19 10:33:52;;;;;;;41.58;22.85;;;-0.60;1.00;;;;;;7381426;19;20018;-69
2024/01/19 10:36:23;;;;;;;40.55;21.63;;;-0.40;1.00;;;;;;7381090;19;20632;-69
2024/01/19 10:38:53;;;;;;;41.53;24.13;;;-0.60;1.00;;;;;;7381099;19;20382;-70
2024/01/19 10:41:28;;;;;;;35.83;21.88;;;-0.20;1.00;;;;;;7379137;19;20018;-70
2024/01/19 10:44:12;;;;;;;39.47;23.75;;;-0.20;1.00;;;;;;7378407;19;20022;-70
2024/01/19 10:46:43;;;;;;;40.65;21.70;;;-0.20;1.00;;;;;;7378955;19;20055;-70
2024/01/19 10:49:16;;;;;;;35.80;19.45;;;-0.30;1.00;;;;;;7380758;19;20491;-70
2024/01/19 10:51:48;;;;;;;39.33;21.92;;;-0.40;1.00;;;;;;7379772;19;20085;-70
2024/01/19 10:54:27;;;;;;;41.35;21.45;;;-0.10;1.00;;;;;;7380597;19;20470;-70
2024/01/19 10:57:05;;;;;;;36.67;22.38;;;0.00;1.00;;;;;;7382087;19;20221;-69
2024/01/19 10:59:38;;;;;;;36.83;20.98;;;0.30;1.00;;;;;;7382086;19;20010;-71
2024/01/19 11:02:09;;;;;;;36.28;19.20;;;0.40;1.00;;;;;;7381648;19;20015;-71
2024/01/19 11:04:39;;;;;;;41.20;21.58;;;0.40;1.00;;;;;;7381098;19;20020;-70
2024/01/19 11:07:10;;;;;;;34.72;19.10;;;0.50;1.00;;;;;;7380711;19;20026;-69
2024/01/19 11:09:40;;;;;;;33.25;20.25;;;0.40;1.00;;;;;;7379997;19;20010;-69
2024/01/19 11:12:13;;;;;;;32.20;21.40;;;0.50;1.00;;;;;;7381732;19;20042;-68
2024/01/19 11:14:48;;;;;;;34.00;19.90;;;0.50;1.00;;;;;;7374817;19;20348;-71
2024/01/19 11:17:19;;;;;;;33.83;18.33;;;0.50;1.00;;;;;;7379193;19;20036;-69
2024/01/19 11:19:49;;;;;;;36.40;17.92;;;0.30;1.00;;;;;;7378050;19;20017;-70
2024/01/19 11:22:19;;;;;;;33.25;20.13;;;0.50;1.00;;;;;;7378481;19;20010;-69
2024/01/19 11:24:52;;;;;;;32.30;18.38;;;0.70;1.00;;;;;;7378616;19;20042;-70
2024/01/19 11:27:30;;;;;;;32.60;19.20;;;0.40;1.00;;;;;;7379831;19;20019;-69
2024/01/19 11:30:11;;;;;;;30.98;19.98;;;0.60;1.00;;;;;;7378702;19;20058;-69
2024/01/19 11:32:41;;;;;;;30.35;18.80;;;0.80;1.00;;;;;;7375847;19;20014;-69
2024/01/19 11:35:13;;;;;;;30.27;18.08;;;0.60;1.00;;;;;;7376475;19;20010;-69
2024/01/19 11:37:46;;;;;;;31.05;18.05;;;0.70;1.00;;;;;;7375178;19;20019;-69
2024/01/19 11:40:49;;;;;;;28.95;18.60;;;0.60;1.00;;;;;;7377080;19;20006;-72
2024/01/19 11:43:43;;;;;;;32.95;20.02;;;0.80;1.00;;;;;;7376296;19;20088;-70
2024/01/19 11:46:46;;;;;;;29.90;17.33;;;1.00;1.00;;;;;;7375973;19;20047;-69
2024/01/19 11:49:45;;;;;;;30.45;17.23;;;0.90;1.00;;;;;;6870210;19;2003909;-69
2024/01/19 11:52:41;;;;;;;31.27;17.13;;;0.60;1.00;;;;;;6868649;19;2005271;-69
2024/01/19 11:55:26;;;;;;;;;;;0.80;1.00;;;;;;6870724;19;2004203;-69
2024/01/19 11:58:19;;;;;;;32.03;16.40;;;0.60;1.00;;;;;;6868863;19;2004792;-69
2024/01/19 12:00:51;;;;;;;29.83;18.27;;;1.00;1.00;;;;;;7373226;19;20727;-70
2024/01/19 12:03:24;;;;;;;36.90;19.83;;;1.00;1.00;;;;;;7378367;19;20010;-70
2024/01/19 12:05:59;;;;;;;32.30;18.58;;;0.80;1.00;;;;;;7381347;19;20067;-69
2024/01/19 12:08:31;;;;;;;25.50;16.40;;;0.90;1.00;;;;;;7374490;19;20037;-70
2024/01/19 12:11:07;;;;;;;30.17;18.50;;;0.70;1.00;;;;;;7377958;19;20002;-69
2024/01/19 12:13:40;;;;;;;32.40;18.20;;;0.70;1.00;;;;;;7379234;19;20352;-72
2024/01/19 12:16:14;;;;;;;29.05;17.33;;;1.00;1.00;;;;;;7378319;19;20020;-70
2024/01/19 12:18:48;;;;;;;26.85;16.52;;;0.90;1.00;;;;;;7379669;19;20029;-70
2024/01/19 12:21:20;;;;;;;28.38;16.23;;;0.90;1.00;;;;;;7377611;19;20023;-69
2024/01/19 12:23:55;;;;;;;27.63;17.83;;;1.10;1.00;;;;;;7378946;19;20015;-69
2024/01/19 12:26:26;;;;;;;29.98;19.65;;;1.10;1.00;;;;;;7379479;19;20002;-69
2024/01/19 12:28:58;;;;;;;29.83;17.65;;;1.40;1.00;;;;;;7379174;19;20010;-69
2024/01/19 12:31:36;;;;;;;28.75;18.05;;;1.50;1.00;;;;;;7376801;19;20011;-69
2024/01/19 12:34:18;;;;;;;31.65;19.23;;;1.20;1.00;;;;;;7376968;19;20015;-68
2024/01/19 12:36:48;;;;;;;32.88;19.55;;;1.10;1.00;;;;;;7380766;19;20021;-69
2024/01/19 12:39:24;;;;;;;29.00;18.08;;;1.00;1.00;;;;;;7381249;19;20020;-69
2024/01/19 12:42:02;;;;;;;32.28;19.45;;;0.90;1.00;;;;;;7378472;19;20485;-70
2024/01/19 12:44:32;;;;;;;33.58;20.35;;;0.70;1.00;;;;;;7374712;19;20174;-69
2024/01/19 12:47:04;;;;;;;32.25;17.77;;;0.60;1.00;;;;;;7377454;19;20046;-69
2024/01/19 12:49:37;;;;;;;28.95;18.55;;;0.50;1.00;;;;;;7374467;19;20010;-70
2024/01/19 12:52:21;;;;;;;27.02;17.30;;;0.50;1.00;;;;;;7378344;19;20085;-70
2024/01/19 12:54:51;;;;;;;28.13;17.58;;;0.50;1.00;;;;;;7377253;19;20006;-70